Time;durP1;ratioP1;P1;durP2;ratioP2;P2;SDS_P1;SDS_P2;PMS_P1;PMS_P2;Temp;Humidity;BMP_temperature;BMP_pressure;BME280_temperature;BME280_humidity;BME280_pressure;Samples;Min_cycle;Max_cycle;Signal;HPM_P1;HPM_P2
2021/05/01 00:01:09;;;;;;;7.10;5.63;;;9.80;77.20;;;;;;4997885;28;20034;-88
2021/05/01 00:03:34;;;;;;;7.38;5.45;;;9.80;77.30;;;;;;5004134;28;20022;-89
2021/05/01 00:06:00;;;;;;;8.48;4.80;;;9.70;77.20;;;;;;5003032;28;20021;-88
2021/05/01 00:08:29;;;;;;;7.80;5.47;;;9.80;77.20;;;;;;5011934;28;20030;-88
2021/05/01 00:10:57;;;;;;;7.70;5.55;;;9.70;77.20;;;;;;5002731;28;20491;-88
2021/05/01 00:13:23;;;;;;;8.15;5.13;;;9.70;77.30;;;;;;4993889;28;20057;-88
2021/05/01 00:15:48;;;;;;;6.25;5.07;;;9.60;77.30;;;;;;4993003;28;20441;-88
2021/05/01 00:18:14;;;;;;;7.78;5.25;;;9.60;77.40;;;;;;4993527;28;20024;-87
2021/05/01 00:20:40;;;;;;;8.70;5.55;;;9.60;77.50;;;;;;4991999;28;20173;-86
2021/05/01 00:23:05;;;;;;;6.93;5.25;;;9.60;77.50;;;;;;4992867;28;20049;-87
2021/05/01 00:25:31;;;;;;;11.57;6.15;;;9.60;77.50;;;;;;4992389;28;20397;-87
2021/05/01 00:27:56;;;;;;;8.05;5.53;;;9.60;77.50;;;;;;4991408;28;20484;-87
2021/05/01 00:30:23;;;;;;;7.00;5.35;;;9.60;77.50;;;;;;4990931;28;20030;-87
2021/05/01 00:32:49;;;;;;;7.20;5.32;;;9.60;77.50;;;;;;4991337;28;20034;-91
2021/05/01 00:35:16;;;;;;;6.03;5.13;;;9.60;77.40;;;;;;4992474;28;20034;-96
2021/05/01 00:37:41;;;;;;;7.57;6.03;;;9.60;77.40;;;;;;4991273;28;20022;-95
2021/05/01 00:40:09;;;;;;;6.95;5.85;;;9.50;77.30;;;;;;4993098;28;20030;-95
2021/05/01 00:42:35;;;;;;;8.07;5.85;;;9.50;77.40;;;;;;4993895;28;20046;-94
2021/05/01 00:45:01;;;;;;;9.73;6.10;;;9.50;77.40;;;;;;4992663;28;20520;-94
2021/05/01 00:47:27;;;;;;;9.07;6.18;;;9.50;77.40;;;;;;4993257;28;20539;-94
2021/05/01 00:49:52;;;;;;;7.78;5.90;;;9.50;77.40;;;;;;4994351;28;20019;-95
2021/05/01 00:52:19;;;;;;;7.53;6.00;;;9.50;77.40;;;;;;4993495;28;20080;-95
2021/05/01 00:54:45;;;;;;;9.13;6.57;;;9.50;77.40;;;;;;4994155;28;20026;-95
2021/05/01 00:57:10;;;;;;;8.65;6.55;;;9.50;77.20;;;;;;5007025;28;20036;-95
2021/05/01 00:59:36;;;;;;;8.27;6.63;;;9.40;77.20;;;;;;5006075;28;20054;-94
2021/05/01 01:02:02;;;;;;;8.10;6.07;;;9.50;77.20;;;;;;5015024;28;20038;-92
2021/05/01 01:04:28;;;;;;;9.02;6.70;;;9.40;77.20;;;;;;5003817;28;20033;-93
2021/05/01 01:06:53;;;;;;;8.60;5.82;;;9.40;77.20;;;;;;5000752;28;20022;-92
2021/05/01 01:09:19;;;;;;;9.63;7.07;;;9.40;77.20;;;;;;4995315;28;20034;-92
2021/05/01 01:11:45;;;;;;;9.63;6.93;;;9.40;77.20;;;;;;4992376;28;20028;-92
2021/05/01 01:14:13;;;;;;;10.57;6.38;;;9.30;77.20;;;;;;4994254;28;20470;-92
2021/05/01 01:16:40;;;;;;;10.63;6.97;;;9.30;77.30;;;;;;4992389;28;20030;-89
2021/05/01 01:19:06;;;;;;;10.90;7.00;;;9.20;77.30;;;;;;4989593;28;20065;-90
2021/05/01 01:21:40;;;;;;;7.00;5.78;;;9.20;77.30;;;;;;4990845;28;20034;-89
2021/05/01 01:24:08;;;;;;;8.13;6.20;;;9.20;77.40;;;;;;4991620;28;20121;-89
2021/05/01 01:26:38;;;;;;;8.02;5.95;;;9.20;77.40;;;;;;4991837;28;20042;-90
2021/05/01 01:29:04;;;;;;;7.40;6.32;;;9.20;77.50;;;;;;4989242;28;20036;-92
2021/05/01 01:31:31;;;;;;;7.47;6.15;;;9.20;77.40;;;;;;4993897;28;20011;-92
2021/05/01 01:33:56;;;;;;;7.38;5.05;;;9.20;77.40;;;;;;4991931;28;20055;-92
2021/05/01 01:36:22;;;;;;;8.48;6.82;;;9.20;77.40;;;;;;4991947;28;20608;-92
2021/05/01 01:38:47;;;;;;;7.80;6.45;;;9.20;77.50;;;;;;4991894;28;20018;-91
2021/05/01 01:41:13;;;;;;;9.52;6.53;;;9.10;77.50;;;;;;4994346;28;20513;-91
2021/05/01 01:43:39;;;;;;;8.80;5.97;;;9.10;77.50;;;;;;4993014;28;20027;-92
2021/05/01 01:46:04;;;;;;;7.93;6.53;;;9.10;77.60;;;;;;5001970;28;20125;-92
2021/05/01 01:48:30;;;;;;;8.10;6.22;;;9.10;77.70;;;;;;4993797;28;20057;-91
2021/05/01 01:50:56;;;;;;;9.20;7.25;;;9.10;77.70;;;;;;4995623;28;20169;-91
2021/05/01 01:53:24;;;;;;;9.35;7.15;;;9.10;77.60;;;;;;5008274;28;20041;-92
2021/05/01 01:55:51;;;;;;;7.43;5.80;;;9.10;77.60;;;;;;4995099;28;20077;-91
2021/05/01 01:58:21;;;;;;;10.40;6.85;;;9.00;77.70;;;;;;4992228;28;20485;-92
2021/05/01 02:00:48;;;;;;;11.77;7.00;;;9.00;77.70;;;;;;4994663;28;20506;-91
2021/05/01 02:03:14;;;;;;;9.27;6.32;;;9.00;77.80;;;;;;4996198;28;20022;-91
2021/05/01 02:05:41;;;;;;;7.40;5.80;;;9.00;77.80;;;;;;4996285;28;20041;-91
2021/05/01 02:08:08;;;;;;;9.48;6.03;;;9.00;77.80;;;;;;4996218;28;20627;-89
2021/05/01 02:10:34;;;;;;;8.20;5.32;;;8.90;77.80;;;;;;4995087;28;20018;-90
2021/05/01 02:12:59;;;;;;;9.00;6.20;;;8.90;77.90;;;;;;4995657;28;20113;-91
2021/05/01 02:15:25;;;;;;;7.45;5.80;;;8.90;77.90;;;;;;4994671;28;20026;-91
2021/05/01 02:17:55;;;;;;;8.48;5.88;;;8.90;77.80;;;;;;4995565;28;20474;-90
2021/05/01 02:20:33;;;;;;;8.55;6.07;;;8.90;77.80;;;;;;4995743;28;20182;-91
2021/05/01 02:22:59;;;;;;;9.35;5.43;;;8.90;77.70;;;;;;4995824;28;20044;-92
2021/05/01 02:25:25;;;;;;;8.50;6.13;;;8.90;77.80;;;;;;5003208;28;20022;-91
2021/05/01 02:27:51;;;;;;;9.15;5.60;;;8.90;77.80;;;;;;4991135;28;20030;-91
2021/05/01 02:30:19;;;;;;;7.80;5.55;;;8.90;77.80;;;;;;4995515;28;20029;-92
2021/05/01 02:32:46;;;;;;;7.03;5.20;;;8.90;77.80;;;;;;4995811;28;20381;-90
2021/05/01 02:35:14;;;;;;;6.93;4.80;;;8.80;77.80;;;;;;4995579;28;20022;-90
2021/05/01 02:37:41;;;;;;;7.82;5.47;;;8.80;77.80;;;;;;4996488;28;20473;-92
2021/05/01 02:40:09;;;;;;;6.53;4.70;;;8.80;77.70;;;;;;4995148;28;20035;-93
2021/05/01 02:42:36;;;;;;;6.80;5.20;;;8.80;77.60;;;;;;4996208;28;20404;-93
2021/05/01 02:45:04;;;;;;;6.50;4.70;;;8.80;77.60;;;;;;4994629;28;20508;-91
2021/05/01 02:47:30;;;;;;;7.13;5.25;;;8.80;77.50;;;;;;4997118;28;20038;-93
2021/05/01 02:49:55;;;;;;;6.75;4.75;;;8.80;77.50;;;;;;4995391;28;20033;-92
2021/05/01 02:52:21;;;;;;;8.15;5.50;;;8.70;77.50;;;;;;4996025;28;20062;-90
2021/05/01 02:54:46;;;;;;;7.05;5.35;;;8.70;77.60;;;;;;4995486;28;20109;-89
2021/05/01 02:57:11;;;;;;;7.35;4.72;;;8.60;77.50;;;;;;4988375;28;20081;-90
2021/05/01 02:59:37;;;;;;;6.97;4.68;;;8.60;77.60;;;;;;4975476;28;20565;-91
2021/05/01 03:02:03;;;;;;;6.85;4.53;;;8.60;77.60;;;;;;4983409;28;20036;-90
2021/05/01 03:04:28;;;;;;;7.85;5.07;;;8.50;77.60;;;;;;4995043;28;20109;-91
2021/05/01 03:06:54;;;;;;;6.40;4.50;;;8.50;77.70;;;;;;4995250;28;20469;-91
2021/05/01 03:09:19;;;;;;;7.10;4.82;;;8.50;77.80;;;;;;4995133;28;20018;-91
2021/05/01 03:11:45;;;;;;;7.75;4.95;;;8.40;77.70;;;;;;4996839;28;20117;-91
2021/05/01 03:14:10;;;;;;;7.22;4.55;;;8.40;77.90;;;;;;5002051;28;20076;-91
2021/05/01 03:16:36;;;;;;;7.63;4.45;;;8.40;78.00;;;;;;4998377;28;20033;-94
2021/05/01 03:19:01;;;;;;;7.50;5.20;;;8.30;78.00;;;;;;5014588;28;20018;-92
2021/05/01 03:21:27;;;;;;;5.53;4.47;;;8.30;78.10;;;;;;4996880;28;20030;-92
2021/05/01 03:23:53;;;;;;;6.13;4.07;;;8.30;78.10;;;;;;4995079;28;20022;-93
2021/05/01 03:26:20;;;;;;;5.50;4.20;;;8.30;78.10;;;;;;4994191;28;20389;-93
2021/05/01 03:28:45;;;;;;;8.32;4.57;;;8.30;78.10;;;;;;4993952;28;20030;-93
2021/05/01 03:31:11;;;;;;;7.90;4.90;;;8.20;78.10;;;;;;4994817;28;20528;-93
2021/05/01 03:33:37;;;;;;;6.40;4.55;;;8.20;78.00;;;;;;5011468;28;20037;-92
2021/05/01 03:36:04;;;;;;;6.45;4.55;;;8.20;78.10;;;;;;5013959;28;20105;-92
2021/05/01 03:38:30;;;;;;;6.78;4.40;;;8.20;78.20;;;;;;4999037;28;20049;-93
2021/05/01 03:40:56;;;;;;;5.70;4.30;;;8.10;78.20;;;;;;4993370;28;20026;-93
2021/05/01 03:43:22;;;;;;;6.07;4.40;;;8.10;78.30;;;;;;4993854;28;20034;-91
2021/05/01 03:45:48;;;;;;;7.38;4.95;;;8.00;78.30;;;;;;5009379;28;20027;-91
2021/05/01 03:48:14;;;;;;;7.20;4.75;;;8.00;78.30;;;;;;5013709;28;20026;-93
2021/05/01 03:50:39;;;;;;;5.75;4.28;;;8.00;78.30;;;;;;5012664;28;20076;-93
2021/05/01 03:53:05;;;;;;;6.60;4.47;;;8.00;78.20;;;;;;5014099;28;20022;-92
2021/05/01 03:55:31;;;;;;;6.75;4.72;;;8.00;78.10;;;;;;5001772;28;20058;-92
2021/05/01 03:57:56;;;;;;;5.47;4.20;;;7.90;78.10;;;;;;5001840;28;20527;-93
2021/05/01 04:00:22;;;;;;;5.93;4.55;;;7.90;78.20;;;;;;5013789;28;20022;-92
2021/05/01 04:02:48;;;;;;;6.57;4.32;;;7.80;78.20;;;;;;5004910;28;20029;-92
2021/05/01 04:05:14;;;;;;;6.57;4.38;;;7.80;78.40;;;;;;5004449;28;20014;-93
2021/05/01 04:07:40;;;;;;;6.35;4.95;;;7.70;78.40;;;;;;4994028;28;20018;-91
2021/05/01 04:10:06;;;;;;;6.85;4.88;;;7.70;78.50;;;;;;4992842;28;20034;-91
2021/05/01 04:12:32;;;;;;;6.05;4.82;;;7.70;78.40;;;;;;4994156;28;20018;-92
2021/05/01 04:14:57;;;;;;;6.20;5.32;;;7.70;78.40;;;;;;4992897;28;20034;-92
2021/05/01 04:17:23;;;;;;;8.85;5.43;;;7.70;78.30;;;;;;4993943;28;20061;-92
2021/05/01 04:19:49;;;;;;;7.32;5.30;;;7.70;78.20;;;;;;4993550;28;20035;-92
2021/05/01 04:22:21;;;;;;;7.28;5.35;;;7.60;78.10;;;;;;4991822;28;20092;-92
2021/05/01 04:24:47;;;;;;;8.25;5.22;;;7.60;78.20;;;;;;4994230;28;20019;-90
2021/05/01 04:27:12;;;;;;;8.77;4.95;;;7.60;78.20;;;;;;4994142;28;20057;-91
2021/05/01 04:29:39;;;;;;;8.68;5.53;;;7.50;78.20;;;;;;4993682;28;20026;-92
2021/05/01 04:32:05;;;;;;;6.82;5.18;;;7.50;78.30;;;;;;5000233;28;20032;-93
2021/05/01 04:34:30;;;;;;;7.55;6.15;;;7.50;78.30;;;;;;5000763;28;20039;-94
2021/05/01 04:36:56;;;;;;;9.13;6.30;;;7.50;78.40;;;;;;5001733;28;20049;-93
2021/05/01 04:39:21;;;;;;;8.95;6.10;;;7.50;78.40;;;;;;5012114;28;20022;-92
2021/05/01 04:41:48;;;;;;;9.82;6.78;;;7.50;78.30;;;;;;5012717;28;20026;-92
2021/05/01 04:44:14;;;;;;;7.88;6.20;;;7.50;78.20;;;;;;5012496;28;20018;-93
2021/05/01 04:46:39;;;;;;;10.70;7.25;;;7.60;78.20;;;;;;5013201;28;20021;-92
2021/05/01 04:49:06;;;;;;;9.82;5.95;;;7.60;78.20;;;;;;5002750;28;20037;-92
2021/05/01 04:51:33;;;;;;;7.57;5.90;;;7.70;78.20;;;;;;5001747;28;20032;-92
2021/05/01 04:53:59;;;;;;;6.90;5.32;;;7.60;78.10;;;;;;5002464;28;20476;-92
2021/05/01 04:56:24;;;;;;;7.70;5.15;;;7.70;78.10;;;;;;5001874;28;20057;-90
2021/05/01 04:58:51;;;;;;;9.10;5.38;;;7.80;78.00;;;;;;4993849;28;21284;-88
2021/05/01 05:01:16;;;;;;;6.85;5.45;;;7.80;77.90;;;;;;4991964;28;20061;-89
2021/05/01 05:03:42;;;;;;;8.02;5.07;;;7.80;77.90;;;;;;4992855;28;20077;-91
2021/05/01 05:06:07;;;;;;;6.15;4.80;;;7.80;78.00;;;;;;4992714;28;20022;-90
2021/05/01 05:08:33;;;;;;;6.63;4.88;;;7.80;77.90;;;;;;4995998;28;20018;-89
2021/05/01 05:10:58;;;;;;;7.72;5.07;;;7.90;77.90;;;;;;4993415;28;20031;-88
2021/05/01 05:13:25;;;;;;;8.70;5.47;;;8.00;77.70;;;;;;4994014;28;20117;-88
2021/05/01 05:15:52;;;;;;;7.13;5.60;;;8.10;77.50;;;;;;4993520;28;20038;-89
2021/05/01 05:18:17;;;;;;;8.77;5.65;;;8.10;77.40;;;;;;4996384;28;20121;-91
2021/05/01 05:20:43;;;;;;;6.75;4.78;;;8.20;77.30;;;;;;4992885;28;20126;-91
2021/05/01 05:23:08;;;;;;;7.88;5.35;;;8.20;77.10;;;;;;4983180;28;20532;-90
2021/05/01 05:25:34;;;;;;;7.20;4.35;;;8.30;77.10;;;;;;5009929;28;20105;-90
2021/05/01 05:28:00;;;;;;;7.57;5.65;;;8.50;77.10;;;;;;5012632;28;20535;-91
2021/05/01 05:30:25;;;;;;;6.40;5.25;;;9.00;76.70;;;;;;5000410;28;20563;-91
2021/05/01 05:32:51;;;;;;;9.70;6.32;;;9.50;75.70;;;;;;4992851;28;20050;-89
2021/05/01 05:35:16;;;;;;;7.55;5.00;;;10.30;74.20;;;;;;5010560;28;20022;-91
2021/05/01 05:37:42;;;;;;;8.75;5.78;;;11.00;72.30;;;;;;5000902;28;20405;-91
2021/05/01 05:40:08;;;;;;;5.93;4.88;;;11.70;70.50;;;;;;4994999;28;20018;-90
2021/05/01 05:42:34;;;;;;;6.97;5.32;;;12.40;68.60;;;;;;4996395;28;20486;-90
2021/05/01 05:45:00;;;;;;;6.47;5.25;;;13.20;67.00;;;;;;4995122;28;20014;-90
2021/05/01 05:47:25;;;;;;;8.10;5.45;;;13.80;65.30;;;;;;4996253;28;20030;-91
2021/05/01 05:49:51;;;;;;;6.00;4.90;;;14.40;63.80;;;;;;4995500;28;20029;-91
2021/05/01 05:52:16;;;;;;;5.25;4.20;;;14.90;62.50;;;;;;4995878;28;20137;-91
2021/05/01 05:54:43;;;;;;;6.75;4.97;;;15.40;61.40;;;;;;5010730;28;20683;-91
2021/05/01 05:57:10;;;;;;;7.10;5.80;;;15.80;60.30;;;;;;5014428;28;20038;-91
2021/05/01 05:59:37;;;;;;;7.60;5.82;;;16.40;59.10;;;;;;5001186;28;20026;-92
2021/05/01 06:02:04;;;;;;;7.85;5.30;;;16.70;57.60;;;;;;4995869;28;20433;-91
2021/05/01 06:04:40;;;;;;;7.82;5.50;;;17.10;56.80;;;;;;4994862;28;20030;-89
2021/05/01 06:07:11;;;;;;;7.13;4.70;;;17.40;55.80;;;;;;4976481;28;20023;-90
2021/05/01 06:09:40;;;;;;;6.80;5.70;;;17.40;54.80;;;;;;4977049;28;20444;-91
2021/05/01 06:12:10;;;;;;;7.10;5.10;;;17.80;54.50;;;;;;4996312;28;20092;-91
2021/05/01 06:14:41;;;;;;;7.55;5.72;;;18.10;53.90;;;;;;4997733;28;20022;-92
2021/05/01 06:17:08;;;;;;;6.43;5.28;;;18.30;52.90;;;;;;5015062;28;20021;-91
2021/05/01 06:19:33;;;;;;;6.30;4.25;;;18.10;53.00;;;;;;5014054;28;20476;-91
2021/05/01 06:21:59;;;;;;;6.63;4.75;;;18.30;52.60;;;;;;4995245;28;20034;-91
2021/05/01 06:24:25;;;;;;;7.15;5.28;;;18.20;52.70;;;;;;4995633;28;20044;-90
2021/05/01 06:26:52;;;;;;;7.38;5.30;;;18.40;52.40;;;;;;4993752;28;20354;-90
2021/05/01 06:29:18;;;;;;;7.22;4.90;;;18.60;51.90;;;;;;5006821;28;20030;-90
2021/05/01 06:31:43;;;;;;;6.22;5.28;;;18.70;51.70;;;;;;5014096;28;20120;-90
2021/05/01 06:34:09;;;;;;;6.30;4.82;;;18.50;51.70;;;;;;5011104;28;20018;-90
2021/05/01 06:36:35;;;;;;;7.38;5.13;;;18.30;52.10;;;;;;4995437;28;20030;-88
2021/05/01 06:39:04;;;;;;;6.88;4.97;;;18.60;52.10;;;;;;5003742;28;20097;-91
2021/05/01 06:41:42;;;;;;;6.45;4.90;;;18.90;51.30;;;;;;4993389;28;20034;-90
2021/05/01 06:44:13;;;;;;;7.32;5.15;;;19.10;50.60;;;;;;5003511;28;20104;-91
2021/05/01 06:46:41;;;;;;;5.15;4.18;;;19.00;50.00;;;;;;5001186;28;20429;-90
2021/05/01 06:49:32;;;;;;;5.85;4.00;;;19.10;50.80;;;;;;5001428;28;20110;-90
2021/05/01 06:52:03;;;;;;;6.30;4.78;;;19.40;50.00;;;;;;4989986;28;20046;-91
2021/05/01 06:54:30;;;;;;;6.78;4.07;;;19.20;49.80;;;;;;4993663;28;20030;-89
2021/05/01 06:56:56;;;;;;;6.75;4.85;;;19.20;50.20;;;;;;5000791;28;20059;-91
2021/05/01 06:59:23;;;;;;;7.25;4.88;;;18.80;50.30;;;;;;5008419;28;20026;-90
2021/05/01 07:01:48;;;;;;;5.28;3.83;;;18.60;50.90;;;;;;4995065;28;20129;-90
2021/05/01 07:04:15;;;;;;;7.90;4.63;;;17.40;53.00;;;;;;5000945;28;20073;-91
2021/05/01 07:06:43;;;;;;;5.28;3.67;;;17.60;53.00;;;;;;5007845;28;20026;-90
2021/05/01 07:09:08;;;;;;;5.65;3.90;;;18.10;52.70;;;;;;4999864;28;20018;-91
2021/05/01 07:11:35;;;;;;;4.93;3.38;;;18.10;52.10;;;;;;5005741;28;20605;-92
2021/05/01 07:14:02;;;;;;;5.25;3.60;;;17.60;53.50;;;;;;5015874;28;20030;-96
2021/05/01 07:16:28;;;;;;;6.03;3.85;;;17.90;53.30;;;;;;5003058;28;20022;-96
2021/05/01 07:18:55;;;;;;;5.95;4.00;;;18.70;51.30;;;;;;5013604;28;20040;-96
2021/05/01 07:21:21;;;;;;;7.28;3.65;;;19.10;50.00;;;;;;5020934;28;20030;-94
2021/05/01 07:23:47;;;;;;;5.78;3.75;;;19.70;48.70;;;;;;5024806;28;20025;-91
2021/05/01 07:26:19;;;;;;;4.82;3.17;;;20.00;47.80;;;;;;5002458;28;20085;-92
2021/05/01 07:28:46;;;;;;;5.28;2.88;;;20.10;47.20;;;;;;4998360;28;20061;-94
2021/05/01 07:31:18;;;;;;;4.57;3.42;;;19.60;47.80;;;;;;4994477;28;20026;-94
2021/05/01 07:33:50;;;;;;;5.13;3.33;;;19.70;47.70;;;;;;4994896;28;20057;-88
2021/05/01 07:36:29;;;;;;;3.77;2.80;;;18.80;48.90;;;;;;4991861;28;20068;-90
2021/05/01 07:38:57;;;;;;;5.70;3.05;;;17.20;50.90;;;;;;4994532;28;20053;-90
2021/05/01 07:41:27;;;;;;;5.55;2.97;;;16.50;53.10;;;;;;4993233;28;20384;-88
2021/05/01 07:43:54;;;;;;;4.97;2.80;;;15.50;54.50;;;;;;4994103;28;20108;-88
2021/05/01 07:46:22;;;;;;;3.97;2.63;;;16.50;54.70;;;;;;4992324;28;20030;-90
2021/05/01 07:48:48;;;;;;;4.60;2.97;;;16.70;53.40;;;;;;4999602;28;20496;-88
2021/05/01 07:51:14;;;;;;;4.65;2.97;;;15.50;54.30;;;;;;4992130;28;20025;-89
2021/05/01 07:53:42;;;;;;;5.75;2.97;;;14.80;56.40;;;;;;4993158;28;20080;-90
2021/05/01 07:56:08;;;;;;;5.45;3.53;;;15.40;56.70;;;;;;4993662;28;20432;-88
2021/05/01 07:58:34;;;;;;;4.68;3.05;;;15.40;56.10;;;;;;5005738;28;20125;-90
2021/05/01 08:00:59;;;;;;;3.58;2.90;;;14.90;56.20;;;;;;4998851;28;20504;-89
2021/05/01 08:03:25;;;;;;;4.45;3.40;;;14.40;57.30;;;;;;4976439;28;20401;-91
2021/05/01 08:05:50;;;;;;;5.53;3.70;;;14.30;57.80;;;;;;4993487;28;20125;-91
2021/05/01 08:08:16;;;;;;;3.60;2.75;;;14.30;58.10;;;;;;4995440;28;20034;-91
2021/05/01 08:10:44;;;;;;;4.45;3.40;;;14.40;58.10;;;;;;5004318;28;20507;-91
2021/05/01 08:13:10;;;;;;;4.32;3.03;;;14.40;57.80;;;;;;5008211;28;20045;-88
2021/05/01 08:15:37;;;;;;;7.65;4.70;;;14.20;57.50;;;;;;4993648;28;20034;-89
2021/05/01 08:18:03;;;;;;;4.63;3.10;;;14.00;57.60;;;;;;4993412;28;20026;-89
2021/05/01 08:20:29;;;;;;;5.97;3.58;;;14.00;58.00;;;;;;4993059;28;20485;-88
2021/05/01 08:22:58;;;;;;;6.32;3.92;;;14.00;57.30;;;;;;4991944;28;20026;-90
2021/05/01 08:25:24;;;;;;;7.93;4.25;;;14.00;57.10;;;;;;4992448;28;20110;-91
2021/05/01 08:27:49;;;;;;;5.93;3.80;;;13.90;56.50;;;;;;4993403;28;20046;-91
2021/05/01 08:30:17;;;;;;;6.28;3.85;;;14.00;56.70;;;;;;4993814;28;20026;-91
2021/05/01 08:32:44;;;;;;;5.47;3.55;;;14.00;55.90;;;;;;4992416;28;20704;-90
2021/05/01 08:35:14;;;;;;;5.03;3.55;;;14.10;56.00;;;;;;4987646;28;20045;-91
2021/05/01 08:37:42;;;;;;;3.80;2.80;;;14.20;55.90;;;;;;4992088;28;20076;-90
2021/05/01 08:40:12;;;;;;;3.78;3.10;;;14.50;55.90;;;;;;4992272;28;20026;-90
2021/05/01 08:42:43;;;;;;;4.05;2.75;;;14.70;55.60;;;;;;4991816;28;20097;-90
2021/05/01 08:45:13;;;;;;;4.15;3.45;;;14.70;55.50;;;;;;4992679;28;20377;-89
2021/05/01 08:47:43;;;;;;;4.25;2.95;;;14.60;54.50;;;;;;4996253;28;20113;-91
2021/05/01 08:50:31;;;;;;;4.00;2.75;;;14.40;54.90;;;;;;4991686;28;20481;-91
2021/05/01 08:52:58;;;;;;;4.20;2.60;;;14.50;55.50;;;;;;4993491;28;20039;-90
2021/05/01 08:55:26;;;;;;;2.35;2.15;;;14.70;55.40;;;;;;4991944;28;20022;-89
2021/05/01 08:57:52;;;;;;;2.42;2.10;;;14.80;54.80;;;;;;4992681;28;20038;-91
2021/05/01 09:00:19;;;;;;;3.22;2.53;;;14.80;54.80;;;;;;4992429;28;20026;-90
2021/05/01 09:02:46;;;;;;;3.10;2.60;;;14.60;54.70;;;;;;4992281;28;20069;-89
2021/05/01 09:05:13;;;;;;;4.55;2.80;;;14.50;55.20;;;;;;4992261;28;20098;-90
2021/05/01 09:07:42;;;;;;;3.35;2.50;;;14.40;55.10;;;;;;4994840;28;20102;-87
2021/05/01 09:10:08;;;;;;;4.82;2.63;;;14.10;55.50;;;;;;4999992;28;20026;-89
2021/05/01 09:12:39;;;;;;;4.47;2.78;;;14.00;56.60;;;;;;4991826;28;20022;-88
2021/05/01 09:15:08;;;;;;;3.25;2.33;;;13.90;56.10;;;;;;5002110;28;20123;-89
2021/05/01 09:17:35;;;;;;;6.30;2.72;;;14.00;56.20;;;;;;4992469;28;20507;-89
2021/05/01 09:20:04;;;;;;;3.38;2.33;;;14.00;56.10;;;;;;4992083;28;20405;-89
2021/05/01 09:22:29;;;;;;;3.50;2.60;;;14.20;56.10;;;;;;4991061;28;20507;-88
2021/05/01 09:25:06;;;;;;;3.28;2.72;;;14.50;55.80;;;;;;4991792;28;20048;-88
2021/05/01 09:27:32;;;;;;;5.47;3.30;;;14.60;54.50;;;;;;4991998;28;20440;-88
2021/05/01 09:30:14;;;;;;;4.28;2.92;;;14.40;54.40;;;;;;4990430;28;20030;-88
2021/05/01 09:32:39;;;;;;;5.47;2.80;;;14.30;53.90;;;;;;4991154;28;20027;-90
2021/05/01 09:35:06;;;;;;;4.60;2.80;;;14.10;54.00;;;;;;4974156;28;20269;-87
2021/05/01 09:37:32;;;;;;;4.05;2.90;;;14.10;54.30;;;;;;4992031;28;20062;-89
2021/05/01 09:40:00;;;;;;;2.97;2.58;;;14.00;54.40;;;;;;4992664;28;20033;-89
2021/05/01 09:42:32;;;;;;;2.58;2.03;;;13.90;54.60;;;;;;4989692;28;20038;-89
2021/05/01 09:45:19;;;;;;;3.60;2.63;;;13.80;55.10;;;;;;4990411;28;21883;-90
2021/05/01 09:47:52;;;;;;;3.30;2.40;;;13.70;55.00;;;;;;5001527;28;20122;-91
2021/05/01 09:50:23;;;;;;;4.57;2.88;;;13.60;55.30;;;;;;4992287;28;20023;-92
2021/05/01 09:53:02;;;;;;;4.00;2.80;;;13.60;55.30;;;;;;4992062;28;20030;-91
2021/05/01 09:55:51;;;;;;;3.60;2.53;;;13.70;55.20;;;;;;4992691;28;20437;-92
2021/05/01 09:58:26;;;;;;;5.68;3.13;;;13.90;55.40;;;;;;5009724;28;20022;-92
2021/05/01 10:00:54;;;;;;;4.50;3.00;;;14.10;55.00;;;;;;4992468;28;20037;-89
2021/05/01 10:03:26;;;;;;;2.88;2.40;;;14.20;54.60;;;;;;5010536;28;20026;-89
2021/05/01 10:05:54;;;;;;;3.65;2.83;;;14.30;54.30;;;;;;4991079;28;20117;-89
2021/05/01 10:08:23;;;;;;;4.25;3.05;;;14.50;54.30;;;;;;4991588;28;20114;-89
2021/05/01 10:10:49;;;;;;;3.80;2.50;;;14.50;53.20;;;;;;4989938;28;20022;-89
2021/05/01 10:13:16;;;;;;;4.38;3.08;;;14.60;53.30;;;;;;4990651;28;20024;-90
2021/05/01 10:15:44;;;;;;;3.42;2.70;;;14.90;52.60;;;;;;4989930;28;20473;-90
2021/05/01 10:18:19;;;;;;;3.50;2.30;;;14.90;51.70;;;;;;4991496;28;20427;-90
2021/05/01 10:20:50;;;;;;;3.33;2.50;;;14.80;51.10;;;;;;4992759;28;20022;-90
2021/05/01 10:23:20;;;;;;;3.65;2.20;;;14.70;50.80;;;;;;4994829;28;20030;-89
2021/05/01 10:25:47;;;;;;;2.30;2.10;;;14.60;51.00;;;;;;4991162;28;20026;-90
2021/05/01 10:28:20;;;;;;;5.15;2.55;;;14.50;51.10;;;;;;4995435;28;20474;-91
2021/05/01 10:30:53;;;;;;;4.93;3.20;;;14.40;51.00;;;;;;5003775;28;20030;-88
2021/05/01 10:33:33;;;;;;;3.35;2.53;;;14.20;51.00;;;;;;4982640;28;20019;-88
2021/05/01 10:36:28;;;;;;;3.35;2.53;;;14.10;51.80;;;;;;5004550;28;20025;-89
2021/05/01 10:39:02;;;;;;;4.38;2.50;;;13.90;52.10;;;;;;5005617;28;20025;-89
2021/05/01 10:41:31;;;;;;;3.28;2.35;;;13.90;52.50;;;;;;4994925;28;20042;-88
2021/05/01 10:43:59;;;;;;;3.42;2.13;;;13.80;52.40;;;;;;4993632;28;20528;-89
2021/05/01 10:46:38;;;;;;;5.63;2.60;;;13.70;52.40;;;;;;4993513;28;20030;-89
2021/05/01 10:49:06;;;;;;;4.57;2.25;;;13.60;52.60;;;;;;4994795;28;20042;-89
2021/05/01 10:51:39;;;;;;;2.85;1.95;;;13.40;52.90;;;;;;4994367;28;20084;-90
2021/05/01 10:54:18;;;;;;;2.60;2.00;;;13.30;53.50;;;;;;4993632;28;20033;-90
2021/05/01 10:56:45;;;;;;;3.17;2.10;;;13.20;53.60;;;;;;4994161;28;20042;-90
2021/05/01 10:59:19;;;;;;;3.58;2.30;;;13.10;53.80;;;;;;5009981;28;20029;-90
2021/05/01 11:01:47;;;;;;;5.72;2.60;;;13.10;53.80;;;;;;4994428;28;20038;-89
2021/05/01 11:04:26;;;;;;;2.95;1.88;;;13.10;53.90;;;;;;4994508;28;20418;-91
2021/05/01 11:07:07;;;;;;;3.50;2.13;;;13.10;54.10;;;;;;4976240;28;20117;-91
2021/05/01 11:09:42;;;;;;;2.17;1.55;;;13.20;53.50;;;;;;5006286;28;20054;-91
2021/05/01 11:12:10;;;;;;;3.88;2.30;;;13.30;53.50;;;;;;4996237;28;20078;-89
2021/05/01 11:14:46;;;;;;;3.03;1.85;;;13.40;52.80;;;;;;4994182;28;20548;-89
2021/05/01 11:17:44;;;;;;;3.00;2.08;;;13.60;52.60;;;;;;4992684;28;20073;-91
2021/05/01 11:20:16;;;;;;;3.95;2.20;;;13.80;51.90;;;;;;4991143;28;20066;-91
2021/05/01 11:22:43;;;;;;;3.63;2.00;;;14.10;51.10;;;;;;4994038;28;20037;-90
2021/05/01 11:25:14;;;;;;;3.28;1.80;;;14.30;50.10;;;;;;4993515;28;20109;-89
2021/05/01 11:27:43;;;;;;;2.83;1.83;;;14.40;50.00;;;;;;4995878;28;20042;-90
2021/05/01 11:30:11;;;;;;;3.03;1.92;;;14.60;49.70;;;;;;4994240;28;20058;-87
2021/05/01 11:32:38;;;;;;;2.47;1.80;;;14.60;49.20;;;;;;4991640;28;20061;-86
2021/05/01 11:35:07;;;;;;;5.40;2.00;;;14.70;49.00;;;;;;4988586;28;20126;-86
2021/05/01 11:37:44;;;;;;;1.77;1.50;;;14.60;47.20;;;;;;4992626;28;20374;-86
2021/05/01 11:40:12;;;;;;;2.85;1.90;;;14.60;48.00;;;;;;4988265;28;20085;-86
2021/05/01 11:42:39;;;;;;;2.45;1.60;;;14.50;46.70;;;;;;4995870;28;21297;-85
2021/05/01 11:45:17;;;;;;;1.88;1.33;;;14.50;47.00;;;;;;4988201;28;20010;-87
2021/05/01 11:47:54;;;;;;;2.50;1.63;;;14.40;47.00;;;;;;4987390;28;20118;-87
2021/05/01 11:50:21;;;;;;;2.17;1.52;;;14.30;47.00;;;;;;4990125;28;20669;-86
2021/05/01 11:53:13;;;;;;;2.70;1.42;;;14.30;47.30;;;;;;4986907;28;20058;-85
2021/05/01 11:56:04;;;;;;;1.63;1.48;;;14.20;47.20;;;;;;4990467;28;20041;-85
2021/05/01 11:58:30;;;;;;;1.50;1.40;;;14.10;47.60;;;;;;4990797;28;20065;-86
2021/05/01 12:01:13;;;;;;;2.95;1.42;;;14.00;47.50;;;;;;4987294;28;20027;-85
2021/05/01 12:03:41;;;;;;;2.08;1.58;;;13.90;47.60;;;;;;4992526;28;20069;-86
2021/05/01 12:06:14;;;;;;;2.03;1.60;;;13.90;47.90;;;;;;4989171;28;20134;-85
2021/05/01 12:08:41;;;;;;;2.17;1.50;;;13.90;48.20;;;;;;4992005;28;20049;-84
2021/05/01 12:11:07;;;;;;;3.55;1.73;;;13.90;48.20;;;;;;4990079;28;20030;-85
2021/05/01 12:13:35;;;;;;;1.77;1.50;;;14.00;48.40;;;;;;4989686;28;20374;-85
2021/05/01 12:16:02;;;;;;;2.20;1.50;;;14.20;48.40;;;;;;4990623;28;20014;-85
2021/05/01 12:18:41;;;;;;;2.05;1.60;;;14.30;48.40;;;;;;4990120;28;20026;-86
2021/05/01 12:21:07;;;;;;;2.60;1.75;;;14.40;48.20;;;;;;4987120;28;20481;-86
2021/05/01 12:23:44;;;;;;;1.55;1.45;;;14.40;47.90;;;;;;4990277;28;20065;-85
2021/05/01 12:26:34;;;;;;;2.78;1.50;;;14.40;47.60;;;;;;4988865;28;20496;-85
2021/05/01 12:29:21;;;;;;;2.40;1.90;;;14.50;47.60;;;;;;4980797;28;20043;-86
2021/05/01 12:32:03;;;;;;;2.28;1.77;;;14.60;47.70;;;;;;4987402;28;20700;-85
2021/05/01 12:34:47;;;;;;;2.00;1.80;;;14.60;47.70;;;;;;4988635;28;20088;-85
2021/05/01 12:37:14;;;;;;;3.55;2.15;;;14.80;47.70;;;;;;4986686;28;20041;-85
2021/05/01 12:39:40;;;;;;;1.67;1.45;;;14.70;47.20;;;;;;4989982;28;20381;-87
2021/05/01 12:42:26;;;;;;;2.78;1.98;;;14.60;47.40;;;;;;4989917;28;20501;-85
2021/05/01 12:44:52;;;;;;;1.60;1.50;;;14.60;47.20;;;;;;4989066;28;20026;-86
2021/05/01 12:47:43;;;;;;;2.25;1.80;;;14.70;47.50;;;;;;4991506;28;20110;-86
2021/05/01 12:50:12;;;;;;;3.05;2.65;;;14.80;47.40;;;;;;4990682;28;20044;-87
2021/05/01 12:52:40;;;;;;;2.33;2.00;;;14.60;46.50;;;;;;4991636;28;20028;-88
2021/05/01 12:55:06;;;;;;;5.45;3.17;;;14.40;46.70;;;;;;4993062;28;20021;-87
2021/05/01 12:57:34;;;;;;;3.40;2.67;;;14.30;46.20;;;;;;4991383;28;20026;-88